createdAt,value
2019-04-06T00:02:09.361Z,79.70
2019-04-06T00:04:39.166Z,72.63
2019-04-06T00:07:08.908Z,79.77
2019-04-06T00:09:38.627Z,75.53
2019-04-06T00:12:08.312Z,73.70
2019-04-06T00:14:38.944Z,72.93
2019-04-06T00:17:08.640Z,75.13
2019-04-06T00:19:38.319Z,78.17
2019-04-06T00:22:08.079Z,72.90
2019-04-06T00:24:37.935Z,77.33
2019-04-06T00:27:07.615Z,72.43
2019-04-06T00:29:37.274Z,75.93
2019-04-06T00:32:17.455Z,75.80
2019-04-06T00:34:47.157Z,71.90
2019-04-06T00:37:16.836Z,71.63
2019-04-06T00:39:46.635Z,73.50
2019-04-06T00:42:16.485Z,72.37
2019-04-06T00:44:47.513Z,72.67
2019-04-06T00:47:18.029Z,69.30
2019-04-06T00:49:47.717Z,68.63
2019-04-06T00:52:17.406Z,75.83
2019-04-06T00:54:47.136Z,70.50
2019-04-06T00:57:16.952Z,69.43
2019-04-06T00:59:46.600Z,66.00
2019-04-06T01:02:16.385Z,68.63
2019-04-06T01:04:46.153Z,70.50
2019-04-06T01:07:15.834Z,71.73
2019-04-06T01:09:45.572Z,67.40
2019-04-06T01:12:15.250Z,63.80
2019-04-06T01:14:44.920Z,63.83
2019-04-06T01:17:14.629Z,64.57
2019-04-06T01:19:45.625Z,66.13
2019-04-06T01:22:17.121Z,65.03
2019-04-06T01:24:49.801Z,66.83
2019-04-06T01:27:19.545Z,64.03
2019-04-06T01:29:49.294Z,64.97
2019-04-06T01:32:19.100Z,66.83
2019-04-06T01:34:48.846Z,64.27
2019-04-06T01:37:18.529Z,64.83
2019-04-06T01:39:48.231Z,64.37
2019-04-06T01:42:17.912Z,63.33
2019-04-06T01:44:47.660Z,63.43
2019-04-06T01:47:17.383Z,61.27
2019-04-06T01:49:47.062Z,63.20
2019-04-06T01:52:16.736Z,61.03
2019-04-06T01:54:46.433Z,64.60
2019-04-06T01:57:16.305Z,58.70
2019-04-06T01:59:47.441Z,60.03
2019-04-06T02:02:24.742Z,57.97
2019-04-06T02:04:54.549Z,64.27
2019-04-06T02:07:27.457Z,61.47
2019-04-06T02:09:57.222Z,63.03
2019-04-06T02:12:26.901Z,60.73
2019-04-06T02:14:56.578Z,63.70
2019-04-06T02:17:26.371Z,59.73
2019-04-06T02:19:56.037Z,62.87
2019-04-06T02:22:25.739Z,62.37
2019-04-06T02:24:55.401Z,60.73
2019-04-06T02:27:25.108Z,64.67
2019-04-06T02:30:11.250Z,66.77
2019-04-06T02:32:54.570Z,65.40
2019-04-06T02:35:42.111Z,63.47
2019-04-06T02:38:16.553Z,66.17
2019-04-06T02:41:03.978Z,65.23
2019-04-06T02:43:38.372Z,62.90
2019-04-06T02:46:08.192Z,62.53
2019-04-06T02:48:37.864Z,60.90
2019-04-06T02:51:07.520Z,58.40
2019-04-06T02:53:37.194Z,64.80
2019-04-06T02:56:06.918Z,61.90
2019-04-06T02:58:36.783Z,59.80
2019-04-06T03:01:06.796Z,61.70
2019-04-06T03:03:36.714Z,54.33
2019-04-06T03:06:06.360Z,56.50
2019-04-06T03:08:36.050Z,56.07
2019-04-06T03:11:05.713Z,58.60
2019-04-06T03:13:35.552Z,54.90
2019-04-06T03:16:05.531Z,58.20
2019-04-06T03:18:35.266Z,58.97
2019-04-06T03:21:05.126Z,62.77
2019-04-06T03:23:49.059Z,57.43
2019-04-06T03:26:07.374Z,61.17
2019-04-06T03:28:37.270Z,59.17
2019-04-06T03:31:06.914Z,59.23
2019-04-06T03:33:36.635Z,63.37
2019-04-06T03:36:06.407Z,57.30
2019-04-06T03:38:36.096Z,62.10
2019-04-06T03:41:05.735Z,62.73
2019-04-06T03:43:36.870Z,63.77
2019-04-06T03:46:06.541Z,61.50
2019-04-06T03:48:39.253Z,59.53
2019-04-06T03:51:09.316Z,58.63
2019-04-06T03:53:39.046Z,62.53
2019-04-06T03:56:08.797Z,57.17
2019-04-06T03:58:38.774Z,56.77
2019-04-06T04:01:08.278Z,61.87
2019-04-06T04:03:38.619Z,58.33
2019-04-06T04:06:08.283Z,59.50
2019-04-06T04:08:37.977Z,57.13
2019-04-06T04:11:07.803Z,60.23
2019-04-06T04:13:37.717Z,60.63
2019-04-06T04:16:07.595Z,58.00
2019-04-06T04:18:37.361Z,58.90
2019-04-06T04:21:07.088Z,58.53
2019-04-06T04:23:38.080Z,62.37
2019-04-06T04:26:07.738Z,58.27
2019-04-06T04:28:37.374Z,57.20
2019-04-06T04:31:07.071Z,60.00
2019-04-06T04:33:36.716Z,61.60
2019-04-06T04:36:06.417Z,58.13
2019-04-06T04:38:36.159Z,65.83
2019-04-06T04:41:06.108Z,62.27
2019-04-06T04:43:35.791Z,65.60
2019-04-06T04:46:05.655Z,60.27
2019-04-06T04:48:35.430Z,61.27
2019-04-06T04:51:05.399Z,59.73
2019-04-06T04:53:35.091Z,64.97
2019-04-06T04:56:04.829Z,67.77
2019-04-06T04:58:35.784Z,62.77
2019-04-06T05:01:06.739Z,65.47
2019-04-06T05:03:37.861Z,68.50
2019-04-06T05:06:07.587Z,66.90
2019-04-06T05:08:37.256Z,64.87
2019-04-06T05:11:08.539Z,63.27
2019-04-06T05:13:38.432Z,61.87
2019-04-06T05:16:13.419Z,64.63
2019-04-06T05:18:43.910Z,59.50
2019-04-06T05:21:13.975Z,57.23
2019-04-06T05:23:43.670Z,64.03
2019-04-06T05:26:13.417Z,63.57
2019-04-06T05:28:44.521Z,61.23
2019-04-06T05:31:15.412Z,63.07
2019-04-06T05:33:46.149Z,63.33
2019-04-06T05:36:15.804Z,64.03
2019-04-06T05:38:45.567Z,62.60
2019-04-06T05:41:15.203Z,60.67
2019-04-06T05:43:44.893Z,58.03
2019-04-06T05:46:14.585Z,60.00
2019-04-06T05:48:44.400Z,57.77
2019-04-06T05:51:14.050Z,62.63
2019-04-06T05:53:43.715Z,62.50
2019-04-06T05:56:13.532Z,64.30
2019-04-06T05:58:44.406Z,61.47
2019-04-06T06:01:14.427Z,68.00
2019-04-06T06:03:44.161Z,62.87
2019-04-06T06:06:15.170Z,57.47
2019-04-06T06:08:44.854Z,64.17
2019-04-06T06:11:14.691Z,62.37
2019-04-06T06:13:44.365Z,59.23
2019-04-06T06:16:14.039Z,59.57
2019-04-06T06:18:44.040Z,59.57
2019-04-06T06:21:13.691Z,61.23
2019-04-06T06:23:43.382Z,61.60
2019-04-06T06:26:13.065Z,57.20
2019-04-06T06:28:42.805Z,55.10
2019-04-06T06:31:12.915Z,59.90
2019-04-06T06:33:42.548Z,56.07
2019-04-06T06:36:12.207Z,56.90
2019-04-06T06:38:41.886Z,55.90
2019-04-06T06:41:11.869Z,58.60
2019-04-06T06:43:41.750Z,61.03
2019-04-06T06:46:11.429Z,60.33
2019-04-06T06:48:42.986Z,54.23
2019-04-06T06:51:12.482Z,55.20
2019-04-06T06:53:42.350Z,53.57
2019-04-06T06:56:12.437Z,51.83
2019-04-06T06:58:42.100Z,53.10
2019-04-06T07:01:11.867Z,52.50
2019-04-06T07:03:41.521Z,52.07
2019-04-06T07:06:11.220Z,50.00
2019-04-06T07:08:40.930Z,52.47
2019-04-06T07:11:10.589Z,51.27
2019-04-06T07:13:40.254Z,50.73
2019-04-06T07:16:10.036Z,48.40
2019-04-06T07:18:39.860Z,51.30
2019-04-06T07:21:09.585Z,66.80
2019-04-06T07:23:39.795Z,50.63
2019-04-06T07:26:09.403Z,49.13
2019-04-06T07:28:39.497Z,48.27
2019-04-06T07:31:09.247Z,49.73
2019-04-06T07:33:38.970Z,52.00
2019-04-06T07:36:08.850Z,52.23
2019-04-06T07:38:38.729Z,51.10
2019-04-06T07:41:08.609Z,53.87
2019-04-06T07:43:38.298Z,52.43
2019-04-06T07:46:07.971Z,50.00
2019-04-06T07:48:38.471Z,51.90
2019-04-06T07:51:09.779Z,51.20
2019-04-06T07:53:39.533Z,52.13
2019-04-06T07:56:09.233Z,50.70
2019-04-06T07:58:47.870Z,52.13
2019-04-06T08:01:10.447Z,50.33
2019-04-06T08:03:40.125Z,50.23
2019-04-06T08:06:09.842Z,51.83
2019-04-06T08:08:39.533Z,50.03
2019-04-06T08:11:09.191Z,53.77
2019-04-06T08:13:38.868Z,50.10
2019-04-06T08:16:08.816Z,52.13
2019-04-06T08:18:38.491Z,51.20
2019-04-06T08:21:08.162Z,52.73
2019-04-06T08:23:37.861Z,50.47
2019-04-06T08:26:07.592Z,54.40
2019-04-06T08:28:37.265Z,53.90
2019-04-06T08:31:06.945Z,52.13
2019-04-06T08:33:37.981Z,53.77
2019-04-06T08:36:08.964Z,52.00
2019-04-06T08:38:39.637Z,52.80
2019-04-06T08:41:09.301Z,52.50
2019-04-06T08:43:38.975Z,52.40
2019-04-06T08:46:12.312Z,52.87
2019-04-06T08:48:43.605Z,52.27
2019-04-06T08:51:13.286Z,53.90
2019-04-06T08:53:43.033Z,53.97
2019-04-06T08:56:13.311Z,53.47
2019-04-06T08:58:44.479Z,57.63
2019-04-06T09:01:15.084Z,56.43
2019-04-06T09:03:44.760Z,55.37
2019-04-06T09:06:14.403Z,56.93
2019-04-06T09:08:44.409Z,58.33
2019-04-06T09:11:14.156Z,55.17
2019-04-06T09:13:45.470Z,56.07
2019-04-06T09:16:15.165Z,54.03
2019-04-06T09:18:48.903Z,52.73
2019-04-06T09:21:18.638Z,52.50
2019-04-06T09:23:48.504Z,56.17
2019-04-06T09:26:18.493Z,53.23
2019-04-06T09:28:48.262Z,54.13
2019-04-06T09:31:17.961Z,56.57
2019-04-06T09:33:47.673Z,54.80
2019-04-06T09:36:17.956Z,54.27
2019-04-06T09:38:47.632Z,53.40
2019-04-06T09:41:17.418Z,53.63
2019-04-06T09:43:47.178Z,55.87
2019-04-06T09:46:25.622Z,53.80
2019-04-06T09:48:56.929Z,56.93
2019-04-06T09:51:32.462Z,58.83
2019-04-06T09:54:10.536Z,58.37
2019-04-06T09:56:43.233Z,56.43
2019-04-06T09:59:20.584Z,57.50
2019-04-06T10:01:58.219Z,55.77
2019-04-06T10:04:32.101Z,57.33
2019-04-06T10:07:09.564Z,58.40
2019-04-06T10:09:58.685Z,57.03
2019-04-06T10:12:46.724Z,56.07
2019-04-06T10:15:29.916Z,54.80
2019-04-06T10:18:19.174Z,55.40
2019-04-06T10:21:06.504Z,55.77
2019-04-06T10:23:53.188Z,57.77
2019-04-06T10:26:24.593Z,57.03
2019-04-06T10:29:15.967Z,57.90
2019-04-06T10:32:03.576Z,57.10
2019-04-06T10:34:39.044Z,63.83
2019-04-06T10:37:28.572Z,58.43
2019-04-06T10:39:59.910Z,57.00
2019-04-06T10:42:36.810Z,57.47
2019-04-06T10:45:14.602Z,56.50
2019-04-06T10:48:02.326Z,58.67
2019-04-06T10:50:46.212Z,56.60
2019-04-06T10:53:23.445Z,56.93
2019-04-06T10:56:03.937Z,55.80
2019-04-06T10:58:44.189Z,55.57
2019-04-06T11:01:31.827Z,56.00
2019-04-06T11:04:03.360Z,55.67
2019-04-06T11:06:54.564Z,55.83
2019-04-06T11:09:25.968Z,55.67
2019-04-06T11:11:59.702Z,55.50
2019-04-06T11:14:47.878Z,56.03
2019-04-06T11:17:25.509Z,56.23
2019-04-06T11:20:05.884Z,57.93
2019-04-06T11:22:45.904Z,56.30
2019-04-06T11:25:35.541Z,59.93
2019-04-06T11:28:09.780Z,59.60
2019-04-06T11:30:41.237Z,58.37
2019-04-06T11:33:18.390Z,58.57
2019-04-06T11:35:58.648Z,57.97
2019-04-06T11:38:47.164Z,56.53
2019-04-06T11:41:24.937Z,57.30
2019-04-06T11:44:01.853Z,57.27
2019-04-06T11:46:33.219Z,57.10
2019-04-06T11:49:04.538Z,55.23
2019-04-06T11:51:52.750Z,56.37
2019-04-06T11:54:36.760Z,56.77
2019-04-06T11:57:14.300Z,57.37
2019-04-06T11:59:45.612Z,56.10
2019-04-06T12:02:27.169Z,57.37
2019-04-06T12:05:01.859Z,55.33
2019-04-06T12:07:42.297Z,53.57
2019-04-06T12:10:26.551Z,55.47
2019-04-06T12:13:00.040Z,56.00
2019-04-06T12:15:31.528Z,56.43
2019-04-06T12:18:18.616Z,56.80
2019-04-06T12:20:49.922Z,56.60
2019-04-06T12:23:37.343Z,55.30
2019-04-06T12:26:17.884Z,53.37
2019-04-06T12:29:04.455Z,57.47
2019-04-06T12:31:53.957Z,55.60
2019-04-06T12:34:29.236Z,56.40
2019-04-06T12:37:00.536Z,57.37
2019-04-06T12:39:34.857Z,55.87
2019-04-06T12:42:08.654Z,57.00
2019-04-06T12:44:58.628Z,54.20
2019-04-06T12:47:36.349Z,54.27
2019-04-06T12:50:15.605Z,61.00
2019-04-06T12:52:52.596Z,54.57
2019-04-06T12:55:39.452Z,56.73
2019-04-06T12:58:27.995Z,57.27
2019-04-06T13:01:03.187Z,56.33
2019-04-06T13:03:34.504Z,56.07
2019-04-06T13:06:24.496Z,55.07
2019-04-06T13:09:01.352Z,56.23
2019-04-06T13:11:33.088Z,54.60
2019-04-06T13:14:27.899Z,55.80
2019-04-06T13:17:02.035Z,55.00
2019-04-06T13:19:33.528Z,55.00
2019-04-06T13:22:05.411Z,55.20
2019-04-06T13:24:40.571Z,56.13
2019-04-06T13:27:18.060Z,59.17
2019-04-06T13:29:49.418Z,55.60
2019-04-06T13:32:22.431Z,52.67
2019-04-06T13:34:56.954Z,53.80
2019-04-06T13:37:34.552Z,56.73
2019-04-06T13:40:17.383Z,54.77
2019-04-06T13:42:58.288Z,56.90
2019-04-06T13:45:39.031Z,58.37
2019-04-06T13:48:27.873Z,54.43
2019-04-06T13:51:11.470Z,60.33
2019-04-06T13:53:42.720Z,56.27
2019-04-06T13:56:14.244Z,56.03
2019-04-06T13:58:45.628Z,57.10
2019-04-06T14:01:32.158Z,58.87
2019-04-06T14:04:03.588Z,55.53
2019-04-06T14:06:51.421Z,54.97
2019-04-06T14:09:26.077Z,57.50
2019-04-06T14:12:03.305Z,55.97
2019-04-06T14:14:50.581Z,55.87
2019-04-06T14:17:28.659Z,55.67
2019-04-06T14:20:15.908Z,56.17
2019-04-06T14:22:49.023Z,56.10
2019-04-06T14:25:28.921Z,57.57
2019-04-06T14:28:00.233Z,57.00
2019-04-06T14:30:37.382Z,58.70
2019-04-06T14:33:24.554Z,59.93
2019-04-06T14:35:57.644Z,58.83
2019-04-06T14:38:34.890Z,62.53
2019-04-06T14:41:11.240Z,61.87
2019-04-06T14:44:01.026Z,60.27
2019-04-06T14:46:35.419Z,69.80
2019-04-06T14:49:14.250Z,60.97
2019-04-06T14:51:42.742Z,60.93
2019-04-06T14:54:14.073Z,60.40
2019-04-06T14:56:46.394Z,62.77
2019-04-06T14:59:18.101Z,62.33
2019-04-06T15:01:57.965Z,61.47
2019-04-06T15:04:39.034Z,61.13
2019-04-06T15:07:12.385Z,61.47
2019-04-06T15:09:45.272Z,63.07
2019-04-06T15:12:34.895Z,63.33
2019-04-06T15:15:24.084Z,63.00
2019-04-06T15:17:56.861Z,62.83
2019-04-06T15:20:38.378Z,61.10
2019-04-06T15:23:10.293Z,60.20
2019-04-06T15:25:46.004Z,61.13
2019-04-06T15:28:32.302Z,63.40
2019-04-06T15:31:06.661Z,61.57
2019-04-06T15:33:41.221Z,62.50
2019-04-06T15:36:18.379Z,61.10
2019-04-06T15:39:07.855Z,61.20
2019-04-06T15:41:41.897Z,58.90
2019-04-06T15:44:29.606Z,60.63
2019-04-06T15:47:01.085Z,61.37
2019-04-06T15:49:32.530Z,60.23
2019-04-06T15:52:11.426Z,61.13
2019-04-06T15:54:42.889Z,59.83
2019-04-06T15:57:14.203Z,59.57
2019-04-06T15:59:54.613Z,58.43
2019-04-06T16:02:42.214Z,58.50
2019-04-06T16:05:13.730Z,61.23
2019-04-06T16:07:57.274Z,59.73
2019-04-06T16:10:45.178Z,59.03
2019-04-06T16:13:22.507Z,58.90
2019-04-06T16:15:59.858Z,60.77
2019-04-06T16:18:33.871Z,60.80
2019-04-06T16:21:11.164Z,62.93
2019-04-06T16:24:03.497Z,61.80
2019-04-06T16:26:50.621Z,61.87
2019-04-06T16:29:28.391Z,60.47
2019-04-06T16:32:12.357Z,57.93
2019-04-06T16:34:42.009Z,60.23
2019-04-06T16:37:30.914Z,59.13
2019-04-06T16:40:05.003Z,59.13
2019-04-06T16:42:39.373Z,58.53
2019-04-06T16:45:13.492Z,57.73
2019-04-06T16:47:47.933Z,59.53
2019-04-06T16:50:24.512Z,59.80
2019-04-06T16:52:58.597Z,59.83
2019-04-06T16:55:47.977Z,59.40
2019-04-06T16:58:22.208Z,60.83
2019-04-06T17:01:08.768Z,60.63
2019-04-06T17:03:43.138Z,57.63
2019-04-06T17:06:24.834Z,56.80
2019-04-06T17:09:12.993Z,57.10
2019-04-06T17:11:47.310Z,58.50
2019-04-06T17:14:37.623Z,57.33
2019-04-06T17:17:17.650Z,58.13
2019-04-06T17:20:05.648Z,55.90
2019-04-06T17:22:37.194Z,58.07
2019-04-06T17:25:09.199Z,58.57
2019-04-06T17:27:41.949Z,56.13
2019-04-06T17:30:29.260Z,55.93
2019-04-06T17:33:00.867Z,56.27
2019-04-06T17:35:38.167Z,55.37
2019-04-06T17:38:18.201Z,55.07
2019-04-06T17:40:49.537Z,58.17
2019-04-06T17:43:26.775Z,55.33
2019-04-06T17:45:58.093Z,58.43
2019-04-06T17:48:35.118Z,58.87
2019-04-06T17:51:09.435Z,60.17
2019-04-06T17:53:55.856Z,54.53
2019-04-06T17:56:36.635Z,54.90
2019-04-06T17:59:24.721Z,55.87
2019-04-06T18:01:57.288Z,54.70
2019-04-06T18:04:34.650Z,57.10
2019-04-06T18:07:09.323Z,54.17
2019-04-06T18:09:41.130Z,59.53
2019-04-06T18:12:21.557Z,53.83
2019-04-06T18:14:51.425Z,57.50
2019-04-06T18:17:21.099Z,54.20
2019-04-06T18:19:50.781Z,54.60
2019-04-06T18:22:20.437Z,53.80
2019-04-06T18:24:50.252Z,54.93
2019-04-06T18:27:20.572Z,53.93
2019-04-06T18:29:50.263Z,51.80
2019-04-06T18:32:26.593Z,53.70
2019-04-06T18:34:56.472Z,54.60
2019-04-06T18:37:28.328Z,54.90
2019-04-06T18:40:02.707Z,54.53
2019-04-06T18:42:32.616Z,54.33
2019-04-06T18:45:02.268Z,57.13
2019-04-06T18:47:32.364Z,55.63
2019-04-06T18:50:05.421Z,55.17
2019-04-06T18:52:35.182Z,52.60
2019-04-06T18:55:06.473Z,53.90
2019-04-06T18:57:36.315Z,55.67
2019-04-06T19:00:16.033Z,54.73
2019-04-06T19:02:46.252Z,53.20
2019-04-06T19:05:17.289Z,54.70
2019-04-06T19:07:47.174Z,53.67
2019-04-06T19:10:17.676Z,56.28
2019-04-06T19:12:47.332Z,52.77
2019-04-06T19:15:17.384Z,52.17
2019-04-06T19:17:47.446Z,52.73
2019-04-06T19:20:19.152Z,53.50
2019-04-06T19:22:49.061Z,51.53
2019-04-06T19:25:19.585Z,53.80
2019-04-06T19:27:49.853Z,53.13
2019-04-06T19:30:20.557Z,52.87
2019-04-06T19:32:50.599Z,52.33
2019-04-06T19:35:20.454Z,55.60
2019-04-06T19:37:55.240Z,55.60
2019-04-06T19:40:27.063Z,53.93
2019-04-06T19:42:57.146Z,54.57
2019-04-06T19:45:27.022Z,53.33
2019-04-06T19:47:56.802Z,55.10
2019-04-06T19:50:26.442Z,54.97
2019-04-06T19:52:56.306Z,52.40
2019-04-06T19:55:26.158Z,54.17
2019-04-06T19:57:56.034Z,52.73
2019-04-06T20:00:26.090Z,53.07
2019-04-06T20:02:57.910Z,55.90
2019-04-06T20:05:27.667Z,53.27
2019-04-06T20:07:57.351Z,53.33
2019-04-06T20:10:27.459Z,55.47
2019-04-06T20:12:59.610Z,53.77
2019-04-06T20:15:29.326Z,54.87
2019-04-06T20:20:46.284Z,54.83
2019-04-06T20:23:16.412Z,55.27
2019-04-06T20:25:46.379Z,52.33
2019-04-06T20:28:16.222Z,53.50
2019-04-06T20:30:45.908Z,57.23
2019-04-06T20:33:15.603Z,56.03
2019-04-06T20:35:45.383Z,53.80
2019-04-06T20:38:15.162Z,55.10
2019-04-06T20:40:44.937Z,57.77
2019-04-06T20:43:14.622Z,60.93
2019-04-06T20:45:46.527Z,57.37
2019-04-06T20:48:16.175Z,57.07
2019-04-06T20:50:46.159Z,56.27
2019-04-06T20:53:16.008Z,58.23
2019-04-06T20:55:46.266Z,55.33
2019-04-06T20:58:15.961Z,56.73
2019-04-06T21:00:46.108Z,57.77
2019-04-06T21:03:15.862Z,58.63
2019-04-06T21:05:45.577Z,57.43
2019-04-06T21:08:15.585Z,59.37
2019-04-06T21:10:45.799Z,56.87
2019-04-06T21:13:15.851Z,57.93
2019-04-06T21:15:46.064Z,58.67
2019-04-06T21:18:15.848Z,58.60
2019-04-06T21:20:45.562Z,57.77
2019-04-06T21:23:15.644Z,56.43
2019-04-06T21:25:45.725Z,57.90
2019-04-06T21:28:15.499Z,56.13
2019-04-06T21:30:45.168Z,56.40
2019-04-06T21:33:15.466Z,56.80
2019-04-06T21:35:45.790Z,59.17
2019-04-06T21:38:15.984Z,57.37
2019-04-06T21:40:45.703Z,58.20
2019-04-06T21:43:15.790Z,57.80
2019-04-06T21:45:46.743Z,58.63
2019-04-06T21:48:17.025Z,55.40
2019-04-06T21:50:46.891Z,57.27
2019-04-06T21:53:16.563Z,57.07
2019-04-06T21:55:46.227Z,60.57
2019-04-06T21:58:16.479Z,60.73
2019-04-06T22:00:50.060Z,58.80
2019-04-06T22:03:20.732Z,60.67
2019-04-06T22:05:51.958Z,58.93
2019-04-06T22:08:21.759Z,58.43
2019-04-06T22:10:51.411Z,60.57
2019-04-06T22:13:21.188Z,58.27
2019-04-06T22:15:50.929Z,57.43
2019-04-06T22:18:20.672Z,60.50
2019-04-06T22:20:50.359Z,61.33
2019-04-06T22:23:20.032Z,58.03
2019-04-06T22:25:50.435Z,61.90
2019-04-06T22:28:22.123Z,60.37
2019-04-06T22:30:51.870Z,67.63
2019-04-06T22:33:21.741Z,60.40
2019-04-06T22:35:52.123Z,62.30
2019-04-06T22:38:21.786Z,63.60
2019-04-06T22:40:52.030Z,64.53
2019-04-06T22:43:21.830Z,62.50
2019-04-06T22:45:51.882Z,59.30
2019-04-06T22:48:21.656Z,63.07
2019-04-06T22:50:52.398Z,61.80
2019-04-06T22:53:22.686Z,63.07
2019-04-06T22:55:52.349Z,59.97
2019-04-06T22:58:22.607Z,59.13
2019-04-06T23:00:54.463Z,61.10
2019-04-06T23:03:35.496Z,59.13
2019-04-06T23:06:15.705Z,61.17
2019-04-06T23:08:45.398Z,60.77
2019-04-06T23:11:15.077Z,59.70
2019-04-06T23:13:44.895Z,60.00
2019-04-06T23:16:14.754Z,62.33
2019-04-06T23:18:45.442Z,64.70
2019-04-06T23:21:15.786Z,61.77
2019-04-06T23:23:45.679Z,62.00
2019-04-06T23:26:15.801Z,64.17
2019-04-06T23:28:45.744Z,64.13
2019-04-06T23:31:15.377Z,62.07
2019-04-06T23:33:45.116Z,62.87
2019-04-06T23:36:14.811Z,60.17
2019-04-06T23:38:44.803Z,60.30
2019-04-06T23:41:15.229Z,57.33
2019-04-06T23:43:45.406Z,57.63
2019-04-06T23:46:15.178Z,57.93
2019-04-06T23:48:44.995Z,58.53
2019-04-06T23:51:14.690Z,58.80
2019-04-06T23:53:44.383Z,59.27
2019-04-06T23:56:14.798Z,57.67
2019-04-06T23:58:44.780Z,60.87
